createdAt,value
2023-04-01T00:01:20.818Z,98929.46
2023-04-01T00:03:48.780Z,98924.61
2023-04-01T00:06:18.239Z,98923.53
2023-04-01T00:08:45.909Z,98914.11
2023-04-01T00:11:13.892Z,98912.84
2023-04-01T00:13:41.502Z,98908.53
2023-04-01T00:16:19.910Z,98906.81
2023-04-01T00:18:48.953Z,98906.46
2023-04-01T00:21:16.544Z,98899.52
2023-04-01T00:23:44.151Z,98893.18
2023-04-01T00:26:12.624Z,98889.45
2023-04-01T00:28:40.506Z,98883.34
2023-04-01T00:31:09.313Z,98880.32
2023-04-01T00:33:37.349Z,98879.99
2023-04-01T00:36:07.229Z,98878.17
2023-04-01T00:38:34.045Z,98877.44
2023-04-01T00:41:01.270Z,98876.96
2023-04-01T00:43:28.061Z,98871.84
2023-04-01T00:45:55.022Z,98876.65
2023-04-01T00:48:30.329Z,98882.50
2023-04-01T00:51:09.932Z,98873.96
2023-04-01T00:53:40.922Z,98881.22
2023-04-01T00:56:31.011Z,98872.68
2023-04-01T00:59:30.096Z,98877.71
2023-04-01T01:01:57.117Z,98869.95
2023-04-01T01:04:29.078Z,98865.55
2023-04-01T01:07:18.151Z,98867.09
2023-04-01T01:09:57.311Z,98866.94
2023-04-01T01:13:06.127Z,98863.48
2023-04-01T01:15:50.550Z,98860.86
2023-04-01T01:19:10.147Z,98857.96
2023-04-01T01:22:02.207Z,98855.64
2023-04-01T01:24:53.997Z,98853.85
2023-04-01T01:27:21.910Z,98855.05
2023-04-01T01:29:55.078Z,98848.42
2023-04-01T01:32:31.689Z,98844.63
2023-04-01T01:35:17.278Z,98847.30
2023-04-01T01:37:46.490Z,98837.14
2023-04-01T01:40:16.470Z,98836.84
2023-04-01T01:42:50.686Z,98842.16
2023-04-01T01:45:20.950Z,98840.02
2023-04-01T01:47:50.645Z,98836.89
2023-04-01T01:50:20.136Z,98834.00
2023-04-01T01:52:46.929Z,98836.16
2023-04-01T01:55:34.280Z,98836.19
2023-04-01T01:58:09.824Z,98843.39
2023-04-01T02:00:41.086Z,98837.10
2023-04-01T02:03:08.657Z,98831.23
2023-04-01T02:05:36.330Z,98830.05
2023-04-01T02:08:16.822Z,98827.14
2023-04-01T02:10:49.388Z,98831.61
2023-04-01T02:13:27.855Z,98831.05
2023-04-01T02:15:57.754Z,98829.21
2023-04-01T02:18:25.032Z,98827.75
2023-04-01T02:20:52.355Z,98828.36
2023-04-01T02:23:20.725Z,98824.35
2023-04-01T02:25:48.261Z,98824.74
2023-04-01T02:28:20.390Z,98821.30
2023-04-01T02:30:50.738Z,98819.15
2023-04-01T02:33:18.917Z,98817.91
2023-04-01T02:35:46.114Z,98815.92
2023-04-01T02:38:16.107Z,98810.98
2023-04-01T02:40:52.283Z,98810.73
2023-04-01T02:43:20.253Z,98811.73
2023-04-01T02:45:47.046Z,98806.13
2023-04-01T02:48:14.582Z,98797.70
2023-04-01T02:50:41.640Z,98801.89
2023-04-01T02:53:08.923Z,98798.52
2023-04-01T02:55:35.892Z,98792.57
2023-04-01T02:58:02.906Z,98788.21
2023-04-01T03:00:30.567Z,98787.78
2023-04-01T03:02:57.901Z,98783.77
2023-04-01T03:05:25.657Z,98779.39
2023-04-01T03:07:52.557Z,98779.35
2023-04-01T03:10:19.397Z,98780.64
2023-04-01T03:12:46.259Z,98783.08
2023-04-01T03:15:15.311Z,98778.90
2023-04-01T03:17:42.756Z,98781.55
2023-04-01T03:20:11.798Z,98781.36
2023-04-01T03:22:40.872Z,98782.88
2023-04-01T03:25:11.071Z,98777.06
2023-04-01T03:27:38.460Z,98772.39
2023-04-01T03:30:07.022Z,98771.70
2023-04-01T03:32:35.613Z,98770.52
2023-04-01T03:35:02.625Z,98768.71
2023-04-01T03:37:29.475Z,98763.23
2023-04-01T03:39:56.362Z,98759.11
2023-04-01T03:42:23.153Z,98760.59
2023-04-01T03:44:50.282Z,98762.70
2023-04-01T03:47:17.186Z,98762.45
2023-04-01T03:49:44.047Z,98760.55
2023-04-01T03:52:11.453Z,98757.29
2023-04-01T03:54:38.372Z,98750.35
2023-04-01T03:57:06.214Z,98749.23
2023-04-01T03:59:34.493Z,98747.84
2023-04-01T04:02:01.558Z,98750.59
2023-04-01T04:04:29.094Z,98750.11
2023-04-01T04:06:57.323Z,98751.52
2023-04-01T04:09:24.450Z,98750.05
2023-04-01T04:11:51.582Z,98751.20
2023-04-01T04:14:18.424Z,98746.69
2023-04-01T04:16:46.025Z,98739.98
2023-04-01T04:19:12.885Z,98736.13
2023-04-01T04:21:41.365Z,98736.08
2023-04-01T04:24:09.232Z,98730.77
2023-04-01T04:26:54.694Z,98737.08
2023-04-01T04:29:23.284Z,98736.93
2023-04-01T04:31:50.264Z,98738.19
2023-04-01T04:34:18.853Z,98737.17
2023-04-01T04:36:46.576Z,98744.05
2023-04-01T04:39:15.036Z,98743.36
2023-04-01T04:41:42.701Z,98739.33
2023-04-01T04:44:09.870Z,98737.70
2023-04-01T04:46:37.852Z,98732.70
2023-04-01T04:49:12.037Z,98733.38
2023-04-01T04:51:38.949Z,98736.07
2023-04-01T04:54:07.263Z,98732.65
2023-04-01T04:56:54.820Z,98733.86
2023-04-01T04:59:22.740Z,98731.28
2023-04-01T05:02:11.990Z,98726.36
2023-04-01T05:04:38.829Z,98729.79
2023-04-01T05:07:07.526Z,98738.63
2023-04-01T05:09:34.449Z,98741.52
2023-04-01T05:12:01.261Z,98740.88
2023-04-01T05:14:32.858Z,98742.08
2023-04-01T05:17:10.324Z,98735.92
2023-04-01T05:19:38.627Z,98739.14
2023-04-01T05:22:06.766Z,98738.82
2023-04-01T05:24:33.965Z,98736.96
2023-04-01T05:27:00.772Z,98738.55
2023-04-01T05:29:28.056Z,98739.54
2023-04-01T05:32:01.454Z,98727.23
2023-04-01T05:34:28.950Z,98735.84
2023-04-01T05:36:55.760Z,98727.02
2023-04-01T05:39:22.705Z,98720.73
2023-04-01T05:41:50.506Z,98716.30
2023-04-01T05:44:17.458Z,98713.23
2023-04-01T05:47:13.673Z,98711.72
2023-04-01T05:49:40.924Z,98702.45
2023-04-01T05:52:08.240Z,98706.42
2023-04-01T05:54:35.782Z,98709.74
2023-04-01T05:57:02.814Z,98702.20
2023-04-01T05:59:31.627Z,98696.52
2023-04-01T06:01:59.877Z,98686.24
2023-04-01T06:04:33.526Z,98690.49
2023-04-01T06:07:00.387Z,98692.41
2023-04-01T06:09:30.784Z,98686.63
2023-04-01T06:12:23.743Z,98687.54
2023-04-01T06:14:59.963Z,98687.98
2023-04-01T06:18:12.245Z,98689.45
2023-04-01T06:21:13.826Z,98683.23
2023-04-01T06:24:19.810Z,98677.95
2023-04-01T06:27:11.766Z,98684.42
2023-04-01T06:29:48.329Z,98680.20
2023-04-01T06:32:24.523Z,98675.71
2023-04-01T06:35:00.999Z,98672.84
2023-04-01T06:37:36.656Z,98671.08
2023-04-01T06:40:18.805Z,98675.13
2023-04-01T06:43:14.116Z,98676.51
2023-04-01T06:46:32.370Z,98669.93
2023-04-01T06:49:53.204Z,98670.00
2023-04-01T06:52:56.238Z,98660.11
2023-04-01T06:55:58.249Z,98654.48
2023-04-01T06:58:58.668Z,98657.44
2023-04-01T07:01:28.910Z,98662.35
2023-04-01T07:04:17.248Z,98656.48
2023-04-01T07:07:00.140Z,98655.25
2023-04-01T07:09:40.664Z,98652.16
2023-04-01T07:12:52.310Z,98651.45
2023-04-01T07:15:42.433Z,98653.31
2023-04-01T07:18:29.150Z,98653.83
2023-04-01T07:20:57.889Z,98653.77
2023-04-01T07:23:41.728Z,98655.98
2023-04-01T07:26:23.742Z,98658.61
2023-04-01T07:29:06.451Z,98662.44
2023-04-01T07:31:51.354Z,98664.05
2023-04-01T07:34:28.358Z,98657.02
2023-04-01T07:37:28.013Z,98650.71
2023-04-01T07:40:00.424Z,98645.21
2023-04-01T07:42:55.379Z,98646.15
2023-04-01T07:45:31.212Z,98637.84
2023-04-01T07:48:26.633Z,98634.42
2023-04-01T07:51:07.791Z,98632.86
2023-04-01T07:53:59.115Z,98632.68
2023-04-01T07:56:49.418Z,98628.61
2023-04-01T07:59:39.345Z,98622.63
2023-04-01T08:03:00.758Z,98626.18
2023-04-01T08:05:33.285Z,98632.02
2023-04-01T08:08:12.088Z,98629.56
2023-04-01T08:11:06.524Z,98629.33
2023-04-01T08:14:26.835Z,98621.78
2023-04-01T08:17:24.646Z,98624.29
2023-04-01T08:19:57.359Z,98629.19
2023-04-01T08:22:49.810Z,98631.24
2023-04-01T08:25:29.216Z,98632.05
2023-04-01T08:28:16.467Z,98629.61
2023-04-01T08:31:00.927Z,98626.52
2023-04-01T08:33:28.769Z,98624.75
2023-04-01T08:36:21.373Z,98623.16
2023-04-01T08:39:11.254Z,98624.66
2023-04-01T08:42:12.215Z,98622.04
2023-04-01T08:45:08.958Z,98622.95
2023-04-01T08:47:58.720Z,98626.46
2023-04-01T08:50:35.030Z,98625.55
2023-04-01T08:53:37.077Z,98627.45
2023-04-01T08:56:28.182Z,98628.33
2023-04-01T08:59:16.436Z,98632.44
2023-04-01T09:01:52.833Z,98626.25
2023-04-01T09:04:48.729Z,98624.61
2023-04-01T09:07:25.307Z,98624.63
2023-04-01T09:10:24.599Z,98625.21
2023-04-01T09:13:20.176Z,98620.02
2023-04-01T09:15:51.278Z,98614.10
2023-04-01T09:18:32.985Z,98619.80
2023-04-01T09:21:11.915Z,98618.83
2023-04-01T09:23:59.691Z,98617.67
2023-04-01T09:26:51.877Z,98618.95
2023-04-01T09:29:45.866Z,98621.82
2023-04-01T09:32:12.846Z,98617.58
2023-04-01T09:35:48.037Z,98613.17
2023-04-01T09:38:31.675Z,98618.13
2023-04-01T09:41:22.463Z,98619.02
2023-04-01T09:44:34.186Z,98609.65
2023-04-01T09:47:29.517Z,98614.48
2023-04-01T09:50:19.924Z,98612.40
2023-04-01T09:53:09.441Z,98607.55
2023-04-01T09:56:08.396Z,98601.27
2023-04-01T09:58:51.589Z,98591.47
2023-04-01T10:01:41.507Z,98587.10
2023-04-01T10:04:42.123Z,98577.74
2023-04-01T10:07:31.542Z,98570.06
2023-04-01T10:10:26.431Z,98567.41
2023-04-01T10:13:12.517Z,98560.84
2023-04-01T10:15:39.341Z,98558.86
2023-04-01T10:18:29.986Z,98560.81
2023-04-01T10:21:13.056Z,98559.52
2023-04-01T10:23:52.151Z,98560.41
2023-04-01T10:26:24.209Z,98563.83
2023-04-01T10:29:20.786Z,98564.23
2023-04-01T10:32:25.842Z,98561.23
2023-04-01T10:35:08.402Z,98560.88
2023-04-01T10:37:45.129Z,98562.27
2023-04-01T10:40:48.126Z,98557.89
2023-04-01T10:43:36.788Z,98551.84
2023-04-01T10:46:53.708Z,98555.62
2023-04-01T10:49:36.659Z,98555.11
2023-04-01T10:52:09.990Z,98550.49
2023-04-01T10:55:38.048Z,98539.27
2023-04-01T10:59:07.840Z,98531.21
2023-04-01T11:02:50.692Z,98527.10
2023-04-01T11:05:21.211Z,98525.09
2023-04-01T11:08:07.423Z,98522.51
2023-04-01T11:11:18.034Z,98517.22
2023-04-01T11:14:06.763Z,98512.90
2023-04-01T11:16:58.610Z,98502.90
2023-04-01T11:19:50.256Z,98491.70
2023-04-01T11:22:46.381Z,98488.28
2023-04-01T11:25:41.643Z,98493.45
2023-04-01T11:28:45.873Z,98483.42
2023-04-01T11:31:23.688Z,98473.35
2023-04-01T11:34:22.616Z,98470.67
2023-04-01T11:37:05.216Z,98468.95
2023-04-01T11:40:15.146Z,98462.20
2023-04-01T11:43:32.455Z,98460.86
2023-04-01T11:46:34.602Z,98451.05
2023-04-01T11:49:16.877Z,98447.98
2023-04-01T11:52:18.066Z,98450.19
2023-04-01T11:55:01.337Z,98453.88
2023-04-01T11:57:52.878Z,98454.46
2023-04-01T12:00:57.678Z,98455.02
2023-04-01T12:03:47.185Z,98459.77
2023-04-01T12:06:36.100Z,98460.55
2023-04-01T12:09:26.053Z,98459.30
2023-04-01T12:12:14.522Z,98455.96
2023-04-01T12:14:59.682Z,98454.29
2023-04-01T12:17:38.372Z,98459.67
2023-04-01T12:20:39.892Z,98455.09
2023-04-01T12:23:30.209Z,98454.17
2023-04-01T12:26:05.110Z,98456.09
2023-04-01T12:28:45.822Z,98454.75
2023-04-01T12:31:31.794Z,98447.79
2023-04-01T12:34:33.952Z,98449.14
2023-04-01T12:37:10.052Z,98457.30
2023-04-01T12:39:58.287Z,98458.02
2023-04-01T12:42:45.302Z,98458.05
2023-04-01T12:45:14.944Z,98455.98
2023-04-01T12:47:57.032Z,98453.98
2023-04-01T12:50:50.426Z,98453.52
2023-04-01T12:53:20.239Z,98447.83
2023-04-01T12:55:52.917Z,98442.73
2023-04-01T12:58:31.739Z,98443.09
2023-04-01T13:01:25.070Z,98440.62
2023-04-01T13:04:18.657Z,98431.20
2023-04-01T13:06:55.250Z,98422.88
2023-04-01T13:09:41.034Z,98419.97
2023-04-01T13:12:34.048Z,98422.67
2023-04-01T13:15:07.004Z,98422.13
2023-04-01T13:18:01.744Z,98420.11
2023-04-01T13:21:07.556Z,98417.92
2023-04-01T13:23:46.930Z,98415.07
2023-04-01T13:26:43.042Z,98417.30
2023-04-01T13:29:33.440Z,98417.34
2023-04-01T13:32:12.650Z,98419.99
2023-04-01T13:34:57.261Z,98421.04
2023-04-01T13:37:36.441Z,98420.41
2023-04-01T13:40:25.217Z,98418.89
2023-04-01T13:42:58.501Z,98416.59
2023-04-01T13:45:39.309Z,98416.73
2023-04-01T13:48:24.653Z,98412.83
2023-04-01T13:51:23.682Z,98411.52
2023-04-01T13:53:56.273Z,98409.25
2023-04-01T13:56:55.515Z,98407.67
2023-04-01T13:59:41.083Z,98406.67
2023-04-01T14:03:05.356Z,98405.95
2023-04-01T14:05:50.968Z,98403.34
2023-04-01T14:08:30.201Z,98408.83
2023-04-01T14:11:07.486Z,98404.60
2023-04-01T14:14:01.736Z,98403.14
2023-04-01T14:16:34.268Z,98399.14
2023-04-01T14:19:26.010Z,98401.19
2023-04-01T14:21:59.940Z,98396.91
2023-04-01T14:24:50.064Z,98397.56
2023-04-01T14:27:46.716Z,98391.92
2023-04-01T14:30:38.434Z,98391.56
2023-04-01T14:33:33.086Z,98391.77
2023-04-01T14:36:12.404Z,98391.63
2023-04-01T14:39:39.239Z,98391.75
2023-04-01T14:42:41.940Z,98391.96
2023-04-01T14:45:08.738Z,98395.27
2023-04-01T14:47:44.915Z,98385.23
2023-04-01T14:50:22.251Z,98397.34
2023-04-01T14:53:07.703Z,98396.08
2023-04-01T14:55:51.640Z,98399.90
2023-04-01T14:58:26.743Z,98392.49
2023-04-01T15:01:06.302Z,98395.56
2023-04-01T15:04:07.505Z,98398.66
2023-04-01T15:06:37.387Z,98392.33
2023-04-01T15:09:11.889Z,98394.71
2023-04-01T15:11:57.521Z,98392.48
2023-04-01T15:14:59.443Z,98392.52
2023-04-01T15:17:32.094Z,98397.34
2023-04-01T15:20:11.331Z,98397.65
2023-04-01T15:22:39.100Z,98396.88
2023-04-01T15:25:30.826Z,98399.55
2023-04-01T15:28:04.048Z,98398.26
2023-04-01T15:30:40.570Z,98404.56
2023-04-01T15:33:25.497Z,98406.59
2023-04-01T15:36:13.954Z,98403.77
2023-04-01T15:38:53.532Z,98400.02
2023-04-01T15:41:36.075Z,98400.50
2023-04-01T15:44:03.872Z,98399.56
2023-04-01T15:46:42.764Z,98400.84
2023-04-01T15:49:28.139Z,98399.39
2023-04-01T15:52:16.217Z,98396.70
2023-04-01T15:55:04.797Z,98396.67
2023-04-01T15:57:52.280Z,98401.63
2023-04-01T16:00:31.001Z,98400.55
2023-04-01T16:03:20.821Z,98406.59
2023-04-01T16:05:56.147Z,98406.50
2023-04-01T16:08:52.545Z,98412.77
2023-04-01T16:11:41.174Z,98415.59
2023-04-01T16:14:23.334Z,98418.73
2023-04-01T16:17:27.941Z,98420.52
2023-04-01T16:20:09.994Z,98421.55
2023-04-01T16:22:55.896Z,98425.75
2023-04-01T16:25:53.245Z,98425.84
2023-04-01T16:28:26.555Z,98430.95
2023-04-01T16:31:27.754Z,98434.95
2023-04-01T16:34:11.520Z,98436.83
2023-04-01T16:37:00.260Z,98437.73
2023-04-01T16:39:27.807Z,98437.27
2023-04-01T16:42:07.010Z,98438.94
2023-04-01T16:45:17.590Z,98443.69
2023-04-01T16:47:52.668Z,98449.23
2023-04-01T16:50:25.995Z,98454.29
2023-04-01T16:53:13.151Z,98460.34
2023-04-01T16:56:05.744Z,98460.14
2023-04-01T16:58:39.805Z,98460.87
2023-04-01T17:01:14.128Z,98464.11
2023-04-01T17:03:43.402Z,98465.58
2023-04-01T17:06:29.973Z,98463.11
2023-04-01T17:09:05.952Z,98474.13
2023-04-01T17:11:38.639Z,98474.38
2023-04-01T17:14:29.315Z,98477.50
2023-04-01T17:17:25.841Z,98476.59
2023-04-01T17:20:25.561Z,98476.73
2023-04-01T17:23:05.590Z,98480.43
2023-04-01T17:25:49.931Z,98480.52
2023-04-01T17:28:26.207Z,98484.17
2023-04-01T17:30:53.178Z,98485.10
2023-04-01T17:33:46.011Z,98490.36
2023-04-01T17:36:30.770Z,98493.73
2023-04-01T17:39:21.348Z,98495.39
2023-04-01T17:42:09.482Z,98501.28
2023-04-01T17:44:55.236Z,98501.59
2023-04-01T17:47:30.937Z,98498.12
2023-04-01T17:50:11.464Z,98500.23
2023-04-01T17:52:45.084Z,98504.89
2023-04-01T17:55:31.007Z,98508.35
2023-04-01T17:58:11.989Z,98511.64
2023-04-01T18:01:03.104Z,98514.89
2023-04-01T18:03:51.611Z,98519.16
2023-04-01T18:06:20.798Z,98525.45
2023-04-01T18:09:10.704Z,98527.11
2023-04-01T18:12:11.527Z,98531.14
2023-04-01T18:15:02.992Z,98533.03
2023-04-01T18:18:04.430Z,98532.70
2023-04-01T18:21:03.720Z,98532.95
2023-04-01T18:24:01.574Z,98534.36
2023-04-01T18:26:33.854Z,98536.52
2023-04-01T18:29:13.809Z,98539.16
2023-04-01T18:31:46.129Z,98542.48
2023-04-01T18:34:43.851Z,98541.21
2023-04-01T18:37:29.107Z,98543.67
2023-04-01T18:40:20.435Z,98542.55
2023-04-01T18:43:06.173Z,98544.25
2023-04-01T18:45:38.036Z,98545.94
2023-04-01T18:48:10.679Z,98547.46
2023-04-01T18:51:02.626Z,98547.48
2023-04-01T18:54:16.018Z,98548.42
2023-04-01T18:56:45.862Z,98548.38
2023-04-01T18:59:47.158Z,98552.73
2023-04-01T19:02:41.123Z,98558.35
2023-04-01T19:05:48.668Z,98561.35
2023-04-01T19:08:29.903Z,98564.17
2023-04-01T19:11:02.540Z,98554.20
2023-04-01T19:13:47.475Z,98564.52
2023-04-01T19:16:16.914Z,98563.77
2023-04-01T19:19:08.696Z,98566.27
2023-04-01T19:21:53.823Z,98571.64
2023-04-01T19:24:20.715Z,98570.45
2023-04-01T19:26:59.537Z,98573.05
2023-04-01T19:29:49.697Z,98580.70
2023-04-01T19:32:38.475Z,98581.05
2023-04-01T19:35:27.196Z,98585.86
2023-04-01T19:38:08.763Z,98590.97
2023-04-01T19:40:56.937Z,98590.86
2023-04-01T19:43:30.045Z,98596.50
2023-04-01T19:46:12.141Z,98596.44
2023-04-01T19:49:11.224Z,98596.52
2023-04-01T19:51:53.128Z,98600.73
2023-04-01T19:54:32.275Z,98600.99
2023-04-01T19:57:05.912Z,98599.85
2023-04-01T20:00:02.110Z,98605.42
2023-04-01T20:02:57.059Z,98609.94
2023-04-01T20:05:42.609Z,98611.23
2023-04-01T20:08:12.278Z,98614.23
2023-04-01T20:11:34.746Z,98620.00
2023-04-01T20:14:18.869Z,98623.20
2023-04-01T20:17:00.113Z,98623.20
2023-04-01T20:19:44.986Z,98623.20
2023-04-01T20:22:23.186Z,98628.39
2023-04-01T20:24:52.231Z,98631.17
2023-04-01T20:27:27.692Z,98632.00
2023-04-01T20:30:33.142Z,98628.64
2023-04-01T20:33:08.850Z,98621.31
2023-04-01T20:35:50.860Z,98625.76
2023-04-01T20:38:31.086Z,98626.61
2023-04-01T20:41:27.873Z,98628.05
2023-04-01T20:43:58.624Z,98625.30
2023-04-01T20:46:58.030Z,98627.60
2023-04-01T20:49:40.658Z,98627.77
2023-04-01T20:52:13.305Z,98626.27
2023-04-01T20:55:10.966Z,98623.39
2023-04-01T20:57:56.499Z,98622.80
2023-04-01T21:00:41.805Z,98618.31
2023-04-01T21:03:19.031Z,98618.75
2023-04-01T21:05:52.355Z,98618.23
2023-04-01T21:08:36.110Z,98622.34
2023-04-01T21:11:28.663Z,98625.84
2023-04-01T21:14:12.262Z,98626.17
2023-04-01T21:16:53.776Z,98617.77
2023-04-01T21:19:57.049Z,98622.40
2023-04-01T21:23:01.621Z,98623.55
2023-04-01T21:25:56.620Z,98621.33
2023-04-01T21:28:26.409Z,98622.86
2023-04-01T21:30:58.364Z,98623.16
2023-04-01T21:33:48.739Z,98623.29
2023-04-01T21:36:37.310Z,98623.23
2023-04-01T21:39:37.112Z,98624.35
2023-04-01T21:42:37.978Z,98626.52
2023-04-01T21:45:34.104Z,98623.38
2023-04-01T21:48:29.114Z,98624.06
2023-04-01T21:51:33.286Z,98628.34
2023-04-01T21:54:40.048Z,98636.14
2023-04-01T21:57:16.430Z,98642.14
2023-04-01T21:59:43.227Z,98640.31
2023-04-01T22:02:25.077Z,98632.87
2023-04-01T22:05:14.884Z,98625.51
2023-04-01T22:08:23.619Z,98620.61
2023-04-01T22:11:17.506Z,98618.52
2023-04-01T22:13:50.771Z,98614.54
2023-04-01T22:16:26.143Z,98611.95
2023-04-01T22:19:06.952Z,98611.96
2023-04-01T22:22:05.250Z,98613.38
2023-04-01T22:24:45.214Z,98612.59
2023-04-01T22:27:11.950Z,98610.45
2023-04-01T22:29:54.080Z,98609.28
2023-04-01T22:32:41.984Z,98608.30
2023-04-01T22:35:24.594Z,98604.38
2023-04-01T22:38:05.875Z,98603.95
2023-04-01T22:40:41.653Z,98596.70
2023-04-01T22:43:22.425Z,98592.85
2023-04-01T22:45:56.252Z,98590.13
2023-04-01T22:48:28.852Z,98586.48
2023-04-01T22:51:00.538Z,98579.90
2023-04-01T22:53:46.956Z,98571.69
2023-04-01T22:56:22.701Z,98575.00
2023-04-01T22:59:17.322Z,98573.40
2023-04-01T23:01:51.461Z,98571.94
2023-04-01T23:04:25.377Z,98571.91
2023-04-01T23:06:58.214Z,98575.70
2023-04-01T23:09:29.148Z,98585.08
2023-04-01T23:12:00.875Z,98586.14
2023-04-01T23:14:32.400Z,98585.73
2023-04-01T23:17:21.197Z,98580.41
2023-04-01T23:20:07.116Z,98578.40
2023-04-01T23:22:39.883Z,98576.98
2023-04-01T23:25:22.172Z,98579.40
2023-04-01T23:28:19.158Z,98575.13
2023-04-01T23:30:45.943Z,98574.66
2023-04-01T23:33:19.000Z,98576.61
2023-04-01T23:35:55.912Z,98572.93
2023-04-01T23:38:26.225Z,98569.34
2023-04-01T23:40:55.475Z,98571.48
2023-04-01T23:43:22.247Z,98567.91
2023-04-01T23:45:49.601Z,98570.28
2023-04-01T23:48:20.097Z,98571.24
2023-04-01T23:50:47.127Z,98574.75
2023-04-01T23:53:25.969Z,98575.39
2023-04-01T23:55:55.258Z,98582.15
2023-04-01T23:58:38.864Z,98584.00
